Terminal Aerodrome Forecast
Issued by NWS Denver/Boulder, CO

Home | Current Version | Previous Version | Text Only | Print | Product List | Glossary On
Versions: 1 2 3 4 5 6 7 8 9 10 11 12 13 14 15 16 17 18 19 20 21 22 23 24 25 26 27 28 29 30 31 32 33 34 35 36 37 38 39 40 41 42 43 44 45 46 47 48 49 50
000
FTUS45 KBOU 241729
TAFDEN
TAF
KDEN 241729Z 2418/2524 10010KT P6SM FEW070 FEW120 SCT200
     FM242200 08010KT P6SM VCTS SCT050CB OVC080
      TEMPO 2422/2502 VRB15G25KT -SHRA BKN040
     FM250200 14007KT P6SM VCSH SCT050 BKN080
     FM250400 18007KT P6SM FEW080 SCT150
     FM250800 21008KT P6SM FEW150 SCT220
     FM251700 32008KT P6SM FEW140 SCT200=

USA.gov is the U.S. government's official web portal to all federal, state and local government web resources and services.